createdAt,value
2023-04-19T00:01:12.762Z,68.77
2023-04-19T00:03:39.831Z,69.38
2023-04-19T00:06:08.670Z,69.08
2023-04-19T00:08:35.467Z,69.81
2023-04-19T00:11:02.251Z,70.45
2023-04-19T00:13:29.194Z,70.11
2023-04-19T00:15:55.965Z,70.50
2023-04-19T00:18:22.786Z,71.13
2023-04-19T00:20:49.447Z,71.26
2023-04-19T00:23:16.133Z,71.48
2023-04-19T00:25:42.892Z,72.13
2023-04-19T00:28:09.592Z,71.11
2023-04-19T00:30:36.417Z,70.89
2023-04-19T00:33:03.378Z,71.85
2023-04-19T00:35:30.209Z,71.68
2023-04-19T00:37:56.925Z,71.21
2023-04-19T00:40:23.646Z,71.02
2023-04-19T00:42:50.464Z,71.76
2023-04-19T00:45:17.173Z,72.24
2023-04-19T00:47:44.006Z,71.86
2023-04-19T00:50:11.104Z,71.90
2023-04-19T00:52:37.720Z,72.13
2023-04-19T00:55:04.881Z,72.22
2023-04-19T00:57:31.566Z,72.06
2023-04-19T00:59:59.060Z,71.90
2023-04-19T01:02:26.316Z,71.99
2023-04-19T01:04:53.432Z,71.62
2023-04-19T01:07:20.175Z,71.39
2023-04-19T01:09:46.856Z,71.32
2023-04-19T01:12:13.551Z,70.60
2023-04-19T01:14:40.551Z,71.33
2023-04-19T01:17:07.906Z,71.10
2023-04-19T01:19:38.905Z,71.03
2023-04-19T01:22:06.901Z,70.78
2023-04-19T01:24:34.166Z,71.22
2023-04-19T01:27:02.728Z,70.25
2023-04-19T01:29:29.490Z,70.65
2023-04-19T01:31:56.269Z,71.24
2023-04-19T01:34:25.990Z,70.95
2023-04-19T01:36:53.071Z,70.69
2023-04-19T01:39:19.931Z,71.19
2023-04-19T01:41:46.596Z,71.22
2023-04-19T01:44:13.647Z,70.30
2023-04-19T01:46:42.934Z,70.88
2023-04-19T01:49:09.724Z,70.91
2023-04-19T01:51:36.834Z,70.81
2023-04-19T01:54:03.645Z,71.35
2023-04-19T01:56:30.619Z,71.03
2023-04-19T01:58:57.342Z,72.39
2023-04-19T02:01:24.259Z,73.46
2023-04-19T02:03:51.372Z,72.84
2023-04-19T02:06:18.433Z,73.27
2023-04-19T02:08:45.490Z,72.94
2023-04-19T02:11:15.104Z,73.21
2023-04-19T02:13:42.142Z,72.41
2023-04-19T02:16:09.473Z,73.43
2023-04-19T02:18:38.802Z,73.14
2023-04-19T02:21:06.092Z,71.96
2023-04-19T02:23:32.890Z,73.17
2023-04-19T02:26:03.675Z,74.19
2023-04-19T02:28:30.766Z,73.49
2023-04-19T02:30:57.662Z,73.84
2023-04-19T02:33:25.244Z,74.44
2023-04-19T02:35:52.027Z,74.68
2023-04-19T02:38:18.872Z,74.31
2023-04-19T02:40:45.697Z,74.82
2023-04-19T02:43:12.461Z,74.48
2023-04-19T02:45:39.217Z,74.46
2023-04-19T02:48:06.208Z,73.96
2023-04-19T02:50:33.033Z,74.75
2023-04-19T02:52:59.889Z,74.88
2023-04-19T02:55:26.763Z,74.03
2023-04-19T02:57:53.519Z,74.03
2023-04-19T03:00:20.373Z,73.75
2023-04-19T03:02:47.337Z,74.05
2023-04-19T03:05:14.278Z,73.79
2023-04-19T03:07:42.532Z,74.55
2023-04-19T03:10:11.233Z,73.58
2023-04-19T03:12:38.042Z,74.01
2023-04-19T03:15:05.131Z,73.27
2023-04-19T03:17:32.135Z,73.73
2023-04-19T03:19:59.157Z,73.67
2023-04-19T03:22:25.906Z,74.11
2023-04-19T03:24:52.756Z,74.00
2023-04-19T03:27:19.732Z,72.65
2023-04-19T03:29:48.884Z,72.28
2023-04-19T03:32:16.044Z,71.86
2023-04-19T03:34:42.772Z,72.79
2023-04-19T03:37:09.521Z,73.79
2023-04-19T03:39:36.320Z,73.19
2023-04-19T03:42:03.176Z,72.98
2023-04-19T03:44:32.048Z,72.63
2023-04-19T03:46:58.834Z,72.96
2023-04-19T03:49:25.548Z,73.37
2023-04-19T03:51:52.275Z,72.80
2023-04-19T03:54:19.055Z,71.83
2023-04-19T03:56:45.832Z,71.75
2023-04-19T03:59:12.734Z,71.73
2023-04-19T04:01:42.690Z,72.47
2023-04-19T04:04:10.215Z,72.38
2023-04-19T04:06:37.268Z,72.76
2023-04-19T04:09:04.265Z,72.91
2023-04-19T04:11:31.075Z,73.02
2023-04-19T04:13:57.940Z,73.43
2023-04-19T04:16:24.762Z,73.42
2023-04-19T04:18:51.736Z,73.97
2023-04-19T04:21:18.610Z,73.08
2023-04-19T04:23:46.060Z,73.48
2023-04-19T04:26:14.271Z,72.33
2023-04-19T04:28:41.190Z,72.82
2023-04-19T04:31:08.514Z,72.48
2023-04-19T04:33:36.279Z,72.84
2023-04-19T04:36:04.154Z,72.52
2023-04-19T04:38:31.416Z,72.21
2023-04-19T04:40:59.710Z,71.84
2023-04-19T04:43:29.360Z,71.81
2023-04-19T04:45:58.145Z,71.36
2023-04-19T04:48:25.252Z,70.82
2023-04-19T04:50:51.999Z,70.46
2023-04-19T04:53:18.773Z,70.22
2023-04-19T04:55:45.603Z,69.60
2023-04-19T04:58:12.317Z,69.73
2023-04-19T05:00:39.092Z,69.83
2023-04-19T05:03:05.934Z,69.71
2023-04-19T05:05:32.804Z,69.57
2023-04-19T05:07:59.613Z,69.31
2023-04-19T05:10:26.364Z,69.19
2023-04-19T05:12:53.093Z,68.73
2023-04-19T05:15:19.868Z,68.51
2023-04-19T05:17:46.631Z,68.48
2023-04-19T05:20:14.652Z,67.77
2023-04-19T05:22:41.746Z,67.75
2023-04-19T05:25:10.361Z,67.90
2023-04-19T05:27:37.205Z,67.31
2023-04-19T05:30:05.452Z,67.83
2023-04-19T05:32:32.487Z,68.11
2023-04-19T05:34:59.237Z,67.76
2023-04-19T05:37:26.090Z,67.78
2023-04-19T05:39:52.775Z,67.47
2023-04-19T05:42:19.639Z,67.21
2023-04-19T05:44:46.511Z,67.14
2023-04-19T05:47:13.184Z,66.75
2023-04-19T05:49:41.399Z,66.86
2023-04-19T05:52:09.460Z,66.73
2023-04-19T05:54:36.358Z,66.94
2023-04-19T05:57:03.561Z,67.03
2023-04-19T05:59:30.332Z,66.59
2023-04-19T06:01:57.223Z,66.37
2023-04-19T06:04:24.648Z,65.34
2023-04-19T06:06:51.660Z,65.29
2023-04-19T06:09:19.062Z,65.03
2023-04-19T06:11:50.726Z,65.35
2023-04-19T06:14:18.675Z,64.64
2023-04-19T06:16:45.819Z,65.21
2023-04-19T06:19:12.601Z,65.03
2023-04-19T06:21:39.341Z,64.25
2023-04-19T06:24:07.103Z,63.37
2023-04-19T06:26:33.848Z,63.26
2023-04-19T06:29:01.593Z,63.47
2023-04-19T06:31:28.404Z,63.59
2023-04-19T06:33:55.323Z,62.69
2023-04-19T06:36:22.017Z,62.50
2023-04-19T06:38:50.466Z,62.21
2023-04-19T06:41:18.129Z,61.98
2023-04-19T06:43:45.141Z,61.61
2023-04-19T06:46:14.236Z,61.77
2023-04-19T06:48:41.325Z,61.70
2023-04-19T06:51:08.122Z,61.72
2023-04-19T06:53:37.974Z,61.47
2023-04-19T06:56:05.103Z,61.31
2023-04-19T06:58:35.327Z,60.57
2023-04-19T07:01:04.431Z,60.06
2023-04-19T07:03:32.046Z,60.14
2023-04-19T07:05:59.032Z,60.01
2023-04-19T07:08:32.268Z,59.76
2023-04-19T07:11:05.977Z,59.55
2023-04-19T07:13:32.634Z,59.64
2023-04-19T07:15:59.610Z,59.07
2023-04-19T07:18:26.535Z,59.20
2023-04-19T07:20:53.195Z,58.98
2023-04-19T07:23:19.980Z,58.47
2023-04-19T07:25:46.815Z,58.40
2023-04-19T07:28:13.649Z,57.77
2023-04-19T07:30:40.712Z,57.87
2023-04-19T07:33:13.394Z,57.36
2023-04-19T07:35:40.389Z,56.81
2023-04-19T07:38:07.136Z,56.39
2023-04-19T07:40:33.938Z,56.29
2023-04-19T07:43:00.612Z,56.33
2023-04-19T07:45:27.344Z,56.22
2023-04-19T07:47:54.485Z,56.30
2023-04-19T07:50:23.049Z,55.62
2023-04-19T07:52:51.857Z,55.87
2023-04-19T07:55:19.463Z,56.39
2023-04-19T07:57:49.277Z,56.15
2023-04-19T08:00:17.044Z,56.55
2023-04-19T08:02:45.448Z,56.05
2023-04-19T08:05:13.874Z,56.24
2023-04-19T08:07:40.988Z,56.84
2023-04-19T08:10:08.034Z,56.24
2023-04-19T08:12:40.680Z,56.38
2023-04-19T08:15:29.164Z,56.31
2023-04-19T08:17:58.898Z,55.38
2023-04-19T08:20:25.816Z,55.80
2023-04-19T08:22:54.293Z,55.95
2023-04-19T08:25:21.535Z,55.75
2023-04-19T08:27:48.358Z,55.96
2023-04-19T08:30:15.497Z,55.72
2023-04-19T08:32:42.240Z,55.34
2023-04-19T08:35:09.382Z,54.75
2023-04-19T08:37:36.310Z,55.65
2023-04-19T08:40:04.108Z,55.41
2023-04-19T08:42:36.317Z,55.06
2023-04-19T08:47:44.910Z,55.80
2023-04-19T08:50:31.292Z,55.40
2023-04-19T08:53:12.168Z,55.25
2023-04-19T08:56:03.432Z,54.77
2023-04-19T09:01:11.202Z,54.34
2023-04-19T09:04:00.439Z,53.69
2023-04-19T09:06:40.196Z,53.08
2023-04-19T09:11:48.376Z,51.88
2023-04-19T09:14:15.701Z,50.40
2023-04-19T09:16:45.945Z,48.83
2023-04-19T09:19:23.458Z,47.09
2023-04-19T09:21:54.796Z,46.09
2023-04-19T09:25:04.556Z,45.70
2023-04-19T09:27:30.797Z,45.06
2023-04-19T09:29:58.036Z,44.32
2023-04-19T09:32:25.221Z,43.45
2023-04-19T09:34:59.129Z,43.56
2023-04-19T09:39:56.646Z,42.41
2023-04-19T09:42:42.286Z,41.67
2023-04-19T09:47:40.638Z,41.50
2023-04-19T09:52:40.868Z,39.91
2023-04-19T09:55:17.676Z,39.71
2023-04-19T09:57:52.908Z,39.75
2023-04-19T10:00:21.956Z,38.94
2023-04-19T10:02:54.830Z,38.49
2023-04-19T10:05:23.078Z,37.94
2023-04-19T10:07:50.275Z,38.26
2023-04-19T10:10:20.907Z,37.08
2023-04-19T10:13:11.593Z,35.19
2023-04-19T10:18:08.625Z,31.26
2023-04-19T10:20:41.389Z,31.59
2023-04-19T10:23:09.039Z,30.18
2023-04-19T10:25:36.979Z,31.30
2023-04-19T10:28:03.637Z,30.47
2023-04-19T10:30:31.184Z,29.88
2023-04-19T10:32:58.512Z,30.05
2023-04-19T10:35:29.886Z,29.72
2023-04-19T10:38:07.071Z,29.30
2023-04-19T10:40:55.318Z,29.18
2023-04-19T10:43:22.918Z,28.43
2023-04-19T10:45:52.851Z,27.99
2023-04-19T10:48:33.581Z,27.95
2023-04-19T10:51:01.263Z,28.57
2023-04-19T10:53:46.843Z,27.95
2023-04-19T10:56:13.526Z,29.08
2023-04-19T10:58:59.222Z,28.68
2023-04-19T11:01:40.585Z,29.49
2023-04-19T11:04:07.961Z,29.04
2023-04-19T11:06:35.057Z,29.41
2023-04-19T11:09:03.367Z,29.04
2023-04-19T11:11:30.013Z,28.67
2023-04-19T11:13:56.757Z,28.75
2023-04-19T11:16:34.275Z,28.91
2023-04-19T11:19:11.006Z,30.15
2023-04-19T11:21:41.285Z,30.97
2023-04-19T11:24:08.597Z,32.26
2023-04-19T11:26:35.674Z,32.56
2023-04-19T11:29:02.668Z,33.28
2023-04-19T11:31:29.473Z,33.79
2023-04-19T11:33:56.191Z,34.42
2023-04-19T11:36:23.396Z,35.19
2023-04-19T11:38:50.554Z,36.32
2023-04-19T11:41:17.324Z,35.35
2023-04-19T11:43:47.136Z,34.60
2023-04-19T11:46:14.214Z,33.75
2023-04-19T11:48:50.967Z,33.45
2023-04-19T11:51:17.710Z,31.48
2023-04-19T11:53:48.224Z,31.35
2023-04-19T11:56:16.635Z,29.80
2023-04-19T11:58:48.869Z,29.94
2023-04-19T12:01:24.906Z,30.30
2023-04-19T12:03:58.537Z,30.92
2023-04-19T12:06:30.147Z,30.55
2023-04-19T12:08:56.970Z,30.76
2023-04-19T12:11:24.548Z,30.93
2023-04-19T12:14:10.304Z,29.33
2023-04-19T12:16:37.127Z,28.21
2023-04-19T12:19:18.066Z,28.24
2023-04-19T12:21:47.420Z,27.51
2023-04-19T12:24:17.532Z,27.58
2023-04-19T12:27:02.041Z,28.74
2023-04-19T12:29:30.116Z,29.43
2023-04-19T12:31:57.007Z,29.04
2023-04-19T12:34:23.966Z,29.11
2023-04-19T12:36:50.743Z,28.78
2023-04-19T12:39:18.073Z,29.03
2023-04-19T12:41:46.094Z,28.63
2023-04-19T12:44:12.804Z,27.82
2023-04-19T12:46:40.008Z,28.20
2023-04-19T12:49:06.927Z,28.36
2023-04-19T12:51:34.076Z,28.60
2023-04-19T12:54:01.145Z,28.52
2023-04-19T12:56:28.111Z,28.44
2023-04-19T12:58:54.838Z,28.83
2023-04-19T13:01:22.344Z,28.49
2023-04-19T13:03:49.354Z,28.58
2023-04-19T13:06:17.595Z,29.06
2023-04-19T13:08:47.322Z,32.99
2023-04-19T13:11:23.623Z,30.25
2023-04-19T13:13:51.882Z,31.14
2023-04-19T13:16:19.314Z,32.33
2023-04-19T13:18:47.578Z,31.25
2023-04-19T13:21:14.497Z,31.65
2023-04-19T13:23:42.709Z,30.95
2023-04-19T13:26:09.712Z,30.30
2023-04-19T13:28:36.656Z,30.31
2023-04-19T13:31:04.495Z,31.02
2023-04-19T13:33:31.378Z,32.34
2023-04-19T13:35:58.206Z,31.10
2023-04-19T13:38:26.616Z,32.04
2023-04-19T13:40:53.388Z,31.24
2023-04-19T13:43:20.308Z,31.73
2023-04-19T13:45:47.234Z,31.67
2023-04-19T13:48:13.987Z,31.88
2023-04-19T13:50:40.805Z,30.94
2023-04-19T13:53:07.664Z,30.77
2023-04-19T13:55:34.658Z,29.48
2023-04-19T13:58:02.143Z,30.49
2023-04-19T14:00:29.058Z,30.16
2023-04-19T14:02:57.191Z,30.64
2023-04-19T14:05:24.545Z,30.39
2023-04-19T14:07:58.567Z,30.06
2023-04-19T14:10:25.521Z,29.17
2023-04-19T14:12:53.402Z,30.23
2023-04-19T14:15:25.678Z,30.18
2023-04-19T14:17:53.008Z,31.25
2023-04-19T14:20:19.788Z,31.25
2023-04-19T14:22:46.677Z,31.79
2023-04-19T14:25:15.548Z,31.67
2023-04-19T14:27:42.484Z,31.10
2023-04-19T14:30:10.371Z,30.96
2023-04-19T14:32:37.439Z,30.54
2023-04-19T14:35:04.396Z,31.27
2023-04-19T14:37:31.309Z,31.26
2023-04-19T14:39:58.098Z,30.65
2023-04-19T14:42:24.961Z,28.40
2023-04-19T14:44:52.324Z,32.32
2023-04-19T14:47:19.386Z,30.00
2023-04-19T14:49:46.197Z,31.81
2023-04-19T14:52:13.111Z,30.89
2023-04-19T14:54:39.945Z,31.75
2023-04-19T14:57:06.755Z,31.98
2023-04-19T14:59:33.936Z,31.50
2023-04-19T15:02:00.728Z,31.77
2023-04-19T15:04:27.694Z,32.43
2023-04-19T15:06:54.621Z,32.50
2023-04-19T15:09:21.694Z,33.76
2023-04-19T15:11:48.433Z,35.19
2023-04-19T15:14:15.317Z,35.04
2023-04-19T15:16:42.782Z,36.01
2023-04-19T15:19:09.568Z,37.12
2023-04-19T15:21:36.358Z,35.82
2023-04-19T15:24:03.835Z,37.79
2023-04-19T15:26:30.564Z,35.86
2023-04-19T15:28:57.694Z,36.16
2023-04-19T15:31:25.378Z,36.86
2023-04-19T15:33:52.249Z,37.65
2023-04-19T15:36:18.927Z,37.64
2023-04-19T15:38:48.388Z,38.06
2023-04-19T15:41:17.709Z,38.10
2023-04-19T15:43:44.506Z,38.87
2023-04-19T15:46:14.288Z,39.24
2023-04-19T15:48:42.347Z,39.26
2023-04-19T15:51:10.720Z,40.05
2023-04-19T15:53:37.721Z,41.25
2023-04-19T15:56:05.730Z,41.13
2023-04-19T15:58:32.385Z,42.92
2023-04-19T16:00:59.153Z,40.99
2023-04-19T16:03:30.645Z,41.40
2023-04-19T16:05:57.605Z,41.79
2023-04-19T16:08:24.338Z,41.03
2023-04-19T16:10:51.192Z,42.00
2023-04-19T16:13:17.957Z,42.99
2023-04-19T16:15:44.742Z,41.86
2023-04-19T16:18:12.530Z,42.84
2023-04-19T16:20:39.518Z,43.76
2023-04-19T16:23:06.333Z,43.90
2023-04-19T16:25:33.196Z,46.24
2023-04-19T16:27:59.962Z,44.92
2023-04-19T16:30:27.261Z,44.26
2023-04-19T16:32:54.993Z,44.48
2023-04-19T16:35:22.046Z,44.42
2023-04-19T16:37:48.814Z,44.97
2023-04-19T16:40:16.294Z,44.95
2023-04-19T16:42:42.982Z,45.46
2023-04-19T16:45:09.896Z,44.59
2023-04-19T16:47:36.756Z,45.11
2023-04-19T16:50:03.998Z,46.68
2023-04-19T16:52:31.656Z,47.14
2023-04-19T16:54:58.384Z,46.50
2023-04-19T16:57:25.151Z,45.27
2023-04-19T16:59:51.893Z,47.31
2023-04-19T17:02:20.195Z,46.86
2023-04-19T17:04:47.467Z,47.08
2023-04-19T17:07:14.523Z,46.67
2023-04-19T17:09:41.249Z,46.68
2023-04-19T17:12:08.364Z,46.01
2023-04-19T17:14:35.146Z,46.40
2023-04-19T17:17:01.911Z,47.70
2023-04-19T17:19:30.653Z,45.90
2023-04-19T17:21:59.078Z,46.48
2023-04-19T17:24:25.765Z,47.05
2023-04-19T17:26:52.892Z,46.90
2023-04-19T17:29:20.952Z,47.26
2023-04-19T17:31:48.226Z,47.04
2023-04-19T17:34:15.012Z,46.77
2023-04-19T17:36:42.550Z,47.07
2023-04-19T17:39:09.781Z,46.76
2023-04-19T17:41:36.472Z,47.14
2023-04-19T17:44:03.208Z,47.62
2023-04-19T17:46:29.962Z,47.45
2023-04-19T17:48:56.777Z,47.56
2023-04-19T17:51:24.478Z,47.78
2023-04-19T17:53:53.154Z,47.86
2023-04-19T17:56:19.857Z,48.15
2023-04-19T17:58:49.098Z,48.29
2023-04-19T18:01:16.770Z,48.77
2023-04-19T18:03:43.780Z,48.67
2023-04-19T18:06:10.813Z,49.21
2023-04-19T18:08:37.655Z,48.90
2023-04-19T18:11:04.402Z,48.91
2023-04-19T18:13:31.138Z,49.28
2023-04-19T18:15:57.856Z,49.59
2023-04-19T18:18:25.957Z,49.11
2023-04-19T18:20:53.119Z,49.55
2023-04-19T18:23:19.856Z,49.32
2023-04-19T18:25:53.235Z,49.31
2023-04-19T18:28:19.870Z,49.53
2023-04-19T18:30:46.834Z,49.63
2023-04-19T18:33:13.621Z,49.89
2023-04-19T18:35:41.451Z,49.57
2023-04-19T18:38:10.630Z,49.59
2023-04-19T18:40:37.382Z,49.43
2023-04-19T18:43:04.133Z,49.77
2023-04-19T18:45:33.182Z,49.60
2023-04-19T18:48:00.790Z,49.93
2023-04-19T18:50:28.011Z,50.02
2023-04-19T18:52:54.786Z,49.84
2023-04-19T18:55:21.643Z,50.14
2023-04-19T18:57:48.230Z,49.85
2023-04-19T19:00:15.255Z,49.76
2023-04-19T19:02:43.794Z,50.40
2023-04-19T19:05:13.725Z,50.61
2023-04-19T19:07:41.917Z,50.40
2023-04-19T19:10:19.215Z,51.34
2023-04-19T19:12:49.260Z,51.54
2023-04-19T19:15:16.678Z,51.72
2023-04-19T19:17:43.793Z,51.95
2023-04-19T19:20:13.848Z,51.95
2023-04-19T19:22:40.586Z,51.53
2023-04-19T19:25:07.406Z,51.74
2023-04-19T19:27:34.096Z,51.77
2023-04-19T19:30:01.411Z,52.19
2023-04-19T19:32:28.793Z,52.23
2023-04-19T19:35:01.743Z,52.69
2023-04-19T19:37:32.351Z,53.11
2023-04-19T19:40:04.133Z,53.30
2023-04-19T19:42:32.204Z,53.42
2023-04-19T19:44:58.962Z,53.60
2023-04-19T19:47:28.043Z,53.68
2023-04-19T19:50:43.714Z,54.14
2023-04-19T19:52:41.902Z,54.13
2023-04-19T19:55:09.660Z,54.02
2023-04-19T20:00:32.050Z,54.58
2023-04-19T20:02:59.010Z,54.60
2023-04-19T20:05:28.789Z,54.80
2023-04-19T20:10:31.925Z,54.47
2023-04-19T20:12:58.667Z,54.74
2023-04-19T20:15:25.360Z,54.40
2023-04-19T20:17:52.428Z,55.16
2023-04-19T20:20:19.392Z,54.71
2023-04-19T20:22:47.054Z,54.63
2023-04-19T20:25:14.894Z,54.95
2023-04-19T20:27:41.593Z,55.36
2023-04-19T20:30:08.993Z,55.51
2023-04-19T20:32:36.892Z,55.52
2023-04-19T20:35:12.566Z,55.04
2023-04-19T20:37:42.306Z,55.31
2023-04-19T20:40:11.279Z,55.41
2023-04-19T20:42:38.132Z,55.27
2023-04-19T20:45:06.004Z,55.44
2023-04-19T20:47:35.377Z,55.18
2023-04-19T20:50:02.076Z,55.36
2023-04-19T20:52:28.832Z,56.00
2023-04-19T20:54:57.996Z,56.34
2023-04-19T20:57:24.896Z,56.65
2023-04-19T20:59:51.730Z,56.61
2023-04-19T21:02:20.713Z,56.60
2023-04-19T21:04:47.541Z,56.90
2023-04-19T21:07:16.240Z,56.79
2023-04-19T21:09:42.970Z,56.97
2023-04-19T21:12:09.702Z,57.04
2023-04-19T21:14:36.444Z,57.26
2023-04-19T21:17:03.245Z,57.19
2023-04-19T21:19:30.068Z,57.68
2023-04-19T21:21:57.090Z,57.44
2023-04-19T21:24:23.966Z,57.64
2023-04-19T21:26:50.771Z,57.89
2023-04-19T21:29:17.797Z,58.13
2023-04-19T21:31:47.285Z,58.54
2023-04-19T21:34:14.023Z,58.44
2023-04-19T21:36:40.864Z,58.48
2023-04-19T21:39:08.256Z,59.09
2023-04-19T21:41:38.808Z,59.72
2023-04-19T21:44:05.511Z,60.61
2023-04-19T21:46:35.641Z,60.95
2023-04-19T21:49:04.599Z,60.91
2023-04-19T21:51:31.594Z,60.71
2023-04-19T21:53:58.430Z,60.80
2023-04-19T21:56:25.222Z,61.20
2023-04-19T21:58:52.015Z,60.80
2023-04-19T22:01:18.767Z,60.00
2023-04-19T22:03:45.734Z,59.62
2023-04-19T22:06:14.149Z,60.08
2023-04-19T22:08:42.025Z,60.37
2023-04-19T22:11:08.888Z,60.09
2023-04-19T22:13:37.672Z,60.30
2023-04-19T22:16:05.883Z,60.43
2023-04-19T22:18:34.872Z,60.57
2023-04-19T22:21:01.647Z,60.95
2023-04-19T22:23:28.412Z,60.60
2023-04-19T22:25:55.384Z,60.56
2023-04-19T22:28:22.201Z,61.00
2023-04-19T22:30:50.059Z,60.68
2023-04-19T22:33:19.761Z,60.04
2023-04-19T22:35:46.600Z,60.48
2023-04-19T22:38:13.519Z,59.86
2023-04-19T22:40:40.578Z,60.01
2023-04-19T22:43:08.476Z,60.04
2023-04-19T22:45:35.390Z,59.16
2023-04-19T22:48:03.583Z,59.35
2023-04-19T22:50:30.479Z,59.25
2023-04-19T22:52:57.277Z,59.70
2023-04-19T22:55:24.095Z,59.10
2023-04-19T22:57:50.842Z,58.88
2023-04-19T23:00:18.499Z,59.06
2023-04-19T23:02:45.533Z,58.78
2023-04-19T23:05:12.527Z,58.79
2023-04-19T23:07:42.126Z,58.26
2023-04-19T23:10:10.469Z,59.23
2023-04-19T23:12:38.956Z,58.54
2023-04-19T23:15:06.565Z,58.13
2023-04-19T23:17:33.386Z,57.99
2023-04-19T23:20:00.225Z,58.10
2023-04-19T23:22:26.988Z,57.83
2023-04-19T23:24:53.771Z,57.92
2023-04-19T23:27:21.457Z,58.48
2023-04-19T23:29:48.321Z,57.83
2023-04-19T23:32:15.175Z,57.89
2023-04-19T23:34:41.874Z,57.79
2023-04-19T23:37:09.169Z,57.73
2023-04-19T23:39:35.871Z,58.11
2023-04-19T23:42:02.645Z,57.72
2023-04-19T23:44:29.553Z,57.58
2023-04-19T23:46:56.292Z,58.32
2023-04-19T23:49:23.098Z,58.27
2023-04-19T23:51:50.750Z,57.87
2023-04-19T23:54:21.321Z,58.02
2023-04-19T23:56:49.811Z,58.05
2023-04-19T23:59:16.857Z,58.08
